sensor_id;sensor_type;location;lat;lon;timestamp;pressure;altitude;pressure_sealevel;temperature
74321;BMP280;62738;45.772;4.804;2023-07-16T00:00:21;99943.00;;;21.76
74321;BMP280;62738;45.772;4.804;2023-07-16T00:02:48;99924.00;;;21.43
74321;BMP280;62738;45.772;4.804;2023-07-16T00:05:15;99932.34;;;21.41
74321;BMP280;62738;45.772;4.804;2023-07-16T00:07:42;99913.84;;;21.54
74321;BMP280;62738;45.772;4.804;2023-07-16T00:10:09;99923.72;;;21.70
74321;BMP280;62738;45.772;4.804;2023-07-16T00:12:36;99929.16;;;21.82
74321;BMP280;62738;45.772;4.804;2023-07-16T00:15:05;99933.97;;;21.97
74321;BMP280;62738;45.772;4.804;2023-07-16T00:17:33;99937.44;;;21.95
74321;BMP280;62738;45.772;4.804;2023-07-16T00:20:01;99925.31;;;21.75
74321;BMP280;62738;45.772;4.804;2023-07-16T00:22:28;99920.28;;;21.89
74321;BMP280;62738;45.772;4.804;2023-07-16T00:24:54;99941.19;;;21.82
74321;BMP280;62738;45.772;4.804;2023-07-16T00:27:21;99939.09;;;21.67
74321;BMP280;62738;45.772;4.804;2023-07-16T00:29:48;99938.25;;;21.80
74321;BMP280;62738;45.772;4.804;2023-07-16T00:32:14;99940.38;;;21.98
74321;BMP280;62738;45.772;4.804;2023-07-16T00:34:41;99933.44;;;22.01
74321;BMP280;62738;45.772;4.804;2023-07-16T00:37:08;99938.75;;;21.92
74321;BMP280;62738;45.772;4.804;2023-07-16T00:39:34;99975.31;;;21.88
74321;BMP280;62738;45.772;4.804;2023-07-16T00:42:01;99986.88;;;21.94
74321;BMP280;62738;45.772;4.804;2023-07-16T00:44:27;99979.38;;;21.68
74321;BMP280;62738;45.772;4.804;2023-07-16T00:46:54;99977.06;;;21.62
74321;BMP280;62738;45.772;4.804;2023-07-16T00:49:21;99980.16;;;21.53
74321;BMP280;62738;45.772;4.804;2023-07-16T00:51:49;99975.16;;;21.51
74321;BMP280;62738;45.772;4.804;2023-07-16T00:54:16;99946.56;;;21.43
74321;BMP280;62738;45.772;4.804;2023-07-16T00:56:43;99932.47;;;21.43
74321;BMP280;62738;45.772;4.804;2023-07-16T00:59:10;99938.81;;;21.43
74321;BMP280;62738;45.772;4.804;2023-07-16T01:04:12;99970.88;;;21.50
74321;BMP280;62738;45.772;4.804;2023-07-16T01:06:41;99987.34;;;21.56
74321;BMP280;62738;45.772;4.804;2023-07-16T01:09:21;99980.91;;;21.37
74321;BMP280;62738;45.772;4.804;2023-07-16T01:11:49;99962.28;;;21.30
74321;BMP280;62738;45.772;4.804;2023-07-16T01:14:17;99965.44;;;21.38
74321;BMP280;62738;45.772;4.804;2023-07-16T01:16:44;99960.06;;;21.29
74321;BMP280;62738;45.772;4.804;2023-07-16T01:19:11;99939.22;;;21.20
74321;BMP280;62738;45.772;4.804;2023-07-16T01:27:22;99941.91;;;20.69
74321;BMP280;62738;45.772;4.804;2023-07-16T01:30:03;99946.16;;;20.70
74321;BMP280;62738;45.772;4.804;2023-07-16T01:32:31;99929.59;;;20.63
74321;BMP280;62738;45.772;4.804;2023-07-16T01:34:59;99936.06;;;20.65
74321;BMP280;62738;45.772;4.804;2023-07-16T01:37:26;99922.41;;;20.91
74321;BMP280;62738;45.772;4.804;2023-07-16T01:39:53;99915.31;;;21.06
74321;BMP280;62738;45.772;4.804;2023-07-16T01:42:20;99935.31;;;21.12
74321;BMP280;62738;45.772;4.804;2023-07-16T01:44:46;99919.44;;;21.03
74321;BMP280;62738;45.772;4.804;2023-07-16T01:47:27;99921.31;;;21.29
74321;BMP280;62738;45.772;4.804;2023-07-16T01:49:55;99915.94;;;21.20
74321;BMP280;62738;45.772;4.804;2023-07-16T01:52:22;99927.38;;;21.24
74321;BMP280;62738;45.772;4.804;2023-07-16T01:54:49;99950.66;;;21.40
74321;BMP280;62738;45.772;4.804;2023-07-16T01:57:15;99936.97;;;21.17
74321;BMP280;62738;45.772;4.804;2023-07-16T01:59:42;99928.13;;;21.09
74321;BMP280;62738;45.772;4.804;2023-07-16T02:02:09;99910.25;;;21.02
74321;BMP280;62738;45.772;4.804;2023-07-16T02:04:35;99905.56;;;21.09
74321;BMP280;62738;45.772;4.804;2023-07-16T02:07:02;99905.75;;;21.13
74321;BMP280;62738;45.772;4.804;2023-07-16T02:09:29;99898.69;;;20.96
74321;BMP280;62738;45.772;4.804;2023-07-16T02:11:55;99913.69;;;21.01
74321;BMP280;62738;45.772;4.804;2023-07-16T02:14:22;99916.22;;;21.10
74321;BMP280;62738;45.772;4.804;2023-07-16T02:16:49;99915.00;;;21.15
74321;BMP280;62738;45.772;4.804;2023-07-16T02:19:15;99929.13;;;21.31
74321;BMP280;62738;45.772;4.804;2023-07-16T02:21:42;99922.78;;;21.48
74321;BMP280;62738;45.772;4.804;2023-07-16T02:24:09;99908.94;;;21.54
74321;BMP280;62738;45.772;4.804;2023-07-16T02:26:35;99910.56;;;21.59
74321;BMP280;62738;45.772;4.804;2023-07-16T02:29:02;99897.47;;;21.68
74321;BMP280;62738;45.772;4.804;2023-07-16T02:31:29;99902.31;;;21.65
74321;BMP280;62738;45.772;4.804;2023-07-16T02:33:55;99901.00;;;21.33
74321;BMP280;62738;45.772;4.804;2023-07-16T02:36:22;99894.56;;;21.15
74321;BMP280;62738;45.772;4.804;2023-07-16T02:38:49;99898.81;;;21.16
74321;BMP280;62738;45.772;4.804;2023-07-16T02:41:15;99905.03;;;20.97
74321;BMP280;62738;45.772;4.804;2023-07-16T02:43:42;99912.94;;;21.16
74321;BMP280;62738;45.772;4.804;2023-07-16T02:46:09;99910.75;;;21.14
74321;BMP280;62738;45.772;4.804;2023-07-16T02:48:35;99909.91;;;21.12
74321;BMP280;62738;45.772;4.804;2023-07-16T02:51:02;99903.09;;;21.17
74321;BMP280;62738;45.772;4.804;2023-07-16T02:53:28;99899.84;;;21.22
74321;BMP280;62738;45.772;4.804;2023-07-16T02:55:55;99905.66;;;21.26
74321;BMP280;62738;45.772;4.804;2023-07-16T02:58:22;99905.28;;;21.34
74321;BMP280;62738;45.772;4.804;2023-07-16T03:00:48;99900.28;;;21.17
74321;BMP280;62738;45.772;4.804;2023-07-16T03:03:15;99892.75;;;21.06
74321;BMP280;62738;45.772;4.804;2023-07-16T03:05:42;99875.66;;;21.02
74321;BMP280;62738;45.772;4.804;2023-07-16T03:08:08;99900.56;;;21.23
74321;BMP280;62738;45.772;4.804;2023-07-16T03:10:35;99893.00;;;21.12
74321;BMP280;62738;45.772;4.804;2023-07-16T03:13:02;99904.94;;;21.10
74321;BMP280;62738;45.772;4.804;2023-07-16T03:15:28;99902.22;;;20.97
74321;BMP280;62738;45.772;4.804;2023-07-16T03:17:55;99896.84;;;20.87
74321;BMP280;62738;45.772;4.804;2023-07-16T03:20:22;99907.53;;;20.73
74321;BMP280;62738;45.772;4.804;2023-07-16T03:22:48;99921.50;;;20.86
74321;BMP280;62738;45.772;4.804;2023-07-16T03:25:15;99934.41;;;21.07
74321;BMP280;62738;45.772;4.804;2023-07-16T03:27:42;99923.63;;;21.02
74321;BMP280;62738;45.772;4.804;2023-07-16T03:30:09;99899.03;;;21.04
74321;BMP280;62738;45.772;4.804;2023-07-16T03:32:36;99891.38;;;20.75
74321;BMP280;62738;45.772;4.804;2023-07-16T03:35:17;99894.59;;;20.68
74321;BMP280;62738;45.772;4.804;2023-07-16T03:37:44;99896.59;;;20.97
74321;BMP280;62738;45.772;4.804;2023-07-16T03:40:16;99926.50;;;20.88
74321;BMP280;62738;45.772;4.804;2023-07-16T03:42:43;99946.78;;;21.16
74321;BMP280;62738;45.772;4.804;2023-07-16T03:45:10;99955.16;;;21.29
74321;BMP280;62738;45.772;4.804;2023-07-16T03:47:37;99971.88;;;21.41
74321;BMP280;62738;45.772;4.804;2023-07-16T03:50:05;99966.53;;;21.31
74321;BMP280;62738;45.772;4.804;2023-07-16T03:52:31;99921.75;;;21.24
74321;BMP280;62738;45.772;4.804;2023-07-16T03:54:58;99922.22;;;21.18
74321;BMP280;62738;45.772;4.804;2023-07-16T03:57:25;99932.06;;;21.02
74321;BMP280;62738;45.772;4.804;2023-07-16T03:59:51;99928.88;;;20.93
74321;BMP280;62738;45.772;4.804;2023-07-16T04:02:18;99920.78;;;20.86
74321;BMP280;62738;45.772;4.804;2023-07-16T04:04:45;99926.75;;;20.78
74321;BMP280;62738;45.772;4.804;2023-07-16T04:07:12;99924.97;;;20.69
74321;BMP280;62738;45.772;4.804;2023-07-16T04:09:39;99935.16;;;20.61
74321;BMP280;62738;45.772;4.804;2023-07-16T04:12:06;99931.22;;;20.83
74321;BMP280;62738;45.772;4.804;2023-07-16T04:14:33;99928.22;;;20.79
74321;BMP280;62738;45.772;4.804;2023-07-16T04:17:00;99938.97;;;20.83
74321;BMP280;62738;45.772;4.804;2023-07-16T04:19:27;99944.19;;;20.73
74321;BMP280;62738;45.772;4.804;2023-07-16T04:21:54;99936.78;;;20.81
74321;BMP280;62738;45.772;4.804;2023-07-16T04:24:20;99926.34;;;20.68
74321;BMP280;62738;45.772;4.804;2023-07-16T04:26:47;99936.16;;;20.67
74321;BMP280;62738;45.772;4.804;2023-07-16T04:29:14;99946.00;;;20.82
74321;BMP280;62738;45.772;4.804;2023-07-16T04:31:40;99932.78;;;20.71
74321;BMP280;62738;45.772;4.804;2023-07-16T04:34:07;99928.03;;;20.75
74321;BMP280;62738;45.772;4.804;2023-07-16T04:36:34;99922.88;;;20.85
74321;BMP280;62738;45.772;4.804;2023-07-16T04:39:00;99922.34;;;20.89
74321;BMP280;62738;45.772;4.804;2023-07-16T04:41:27;99935.03;;;20.74
74321;BMP280;62738;45.772;4.804;2023-07-16T04:43:54;99940.00;;;20.74
74321;BMP280;62738;45.772;4.804;2023-07-16T04:46:21;99936.88;;;20.83
74321;BMP280;62738;45.772;4.804;2023-07-16T04:48:48;99948.81;;;20.82
74321;BMP280;62738;45.772;4.804;2023-07-16T04:51:15;99938.59;;;20.75
74321;BMP280;62738;45.772;4.804;2023-07-16T04:53:41;99934.16;;;20.85
74321;BMP280;62738;45.772;4.804;2023-07-16T04:56:12;99932.25;;;20.90
74321;BMP280;62738;45.772;4.804;2023-07-16T04:58:39;99925.59;;;20.99
74321;BMP280;62738;45.772;4.804;2023-07-16T05:01:10;99932.22;;;21.21
74321;BMP280;62738;45.772;4.804;2023-07-16T05:03:37;99937.50;;;21.29
74321;BMP280;62738;45.772;4.804;2023-07-16T05:06:04;99942.09;;;21.54
74321;BMP280;62738;45.772;4.804;2023-07-16T05:08:31;99934.44;;;21.56
74321;BMP280;62738;45.772;4.804;2023-07-16T05:10:58;99941.63;;;21.59
74321;BMP280;62738;45.772;4.804;2023-07-16T05:13:25;99938.97;;;21.63
74321;BMP280;62738;45.772;4.804;2023-07-16T05:15:52;99941.56;;;21.75
74321;BMP280;62738;45.772;4.804;2023-07-16T05:18:19;99941.97;;;21.85
74321;BMP280;62738;45.772;4.804;2023-07-16T05:20:47;99939.63;;;21.97
74321;BMP280;62738;45.772;4.804;2023-07-16T05:23:14;99940.34;;;21.80
74321;BMP280;62738;45.772;4.804;2023-07-16T05:25:48;99949.81;;;21.53
74321;BMP280;62738;45.772;4.804;2023-07-16T05:28:16;99950.59;;;21.38
74321;BMP280;62738;45.772;4.804;2023-07-16T05:30:42;99950.94;;;21.46
74321;BMP280;62738;45.772;4.804;2023-07-16T05:33:10;99967.50;;;21.71
74321;BMP280;62738;45.772;4.804;2023-07-16T05:35:38;99972.16;;;21.80
74321;BMP280;62738;45.772;4.804;2023-07-16T05:38:05;99969.94;;;21.61
74321;BMP280;62738;45.772;4.804;2023-07-16T05:40:32;99976.69;;;21.54
74321;BMP280;62738;45.772;4.804;2023-07-16T05:42:59;99977.63;;;21.43
74321;BMP280;62738;45.772;4.804;2023-07-16T05:45:25;99967.22;;;21.48
74321;BMP280;62738;45.772;4.804;2023-07-16T05:47:52;99970.44;;;21.24
74321;BMP280;62738;45.772;4.804;2023-07-16T05:50:19;99967.72;;;21.11
74321;BMP280;62738;45.772;4.804;2023-07-16T05:52:46;99956.34;;;21.09
74321;BMP280;62738;45.772;4.804;2023-07-16T05:55:14;99958.53;;;21.26
74321;BMP280;62738;45.772;4.804;2023-07-16T05:57:41;99955.16;;;21.29
74321;BMP280;62738;45.772;4.804;2023-07-16T06:00:09;99972.44;;;21.37
74321;BMP280;62738;45.772;4.804;2023-07-16T06:02:36;99975.72;;;21.32
74321;BMP280;62738;45.772;4.804;2023-07-16T06:05:03;99988.38;;;21.15
74321;BMP280;62738;45.772;4.804;2023-07-16T06:07:31;99981.63;;;20.91
74321;BMP280;62738;45.772;4.804;2023-07-16T06:09:58;99985.03;;;21.03
74321;BMP280;62738;45.772;4.804;2023-07-16T06:12:25;99990.38;;;20.81
74321;BMP280;62738;45.772;4.804;2023-07-16T06:14:51;99985.00;;;20.72
74321;BMP280;62738;45.772;4.804;2023-07-16T06:17:18;99973.53;;;20.83
74321;BMP280;62738;45.772;4.804;2023-07-16T06:19:45;99980.44;;;20.80
74321;BMP280;62738;45.772;4.804;2023-07-16T06:22:12;99994.25;;;20.74
74321;BMP280;62738;45.772;4.804;2023-07-16T06:24:38;100001.00;;;20.83
74321;BMP280;62738;45.772;4.804;2023-07-16T06:27:05;100011.75;;;20.86
74321;BMP280;62738;45.772;4.804;2023-07-16T06:29:32;100005.72;;;20.78
74321;BMP280;62738;45.772;4.804;2023-07-16T06:31:59;100001.34;;;20.75
74321;BMP280;62738;45.772;4.804;2023-07-16T06:34:26;99998.47;;;21.05
74321;BMP280;62738;45.772;4.804;2023-07-16T06:36:52;100004.31;;;21.09
74321;BMP280;62738;45.772;4.804;2023-07-16T06:39:19;100001.75;;;20.99
74321;BMP280;62738;45.772;4.804;2023-07-16T06:41:46;99990.75;;;21.21
74321;BMP280;62738;45.772;4.804;2023-07-16T06:44:13;99980.63;;;21.31
74321;BMP280;62738;45.772;4.804;2023-07-16T06:46:40;99982.63;;;21.44
74321;BMP280;62738;45.772;4.804;2023-07-16T06:49:07;99991.81;;;21.61
74321;BMP280;62738;45.772;4.804;2023-07-16T06:51:34;99988.28;;;21.78
74321;BMP280;62738;45.772;4.804;2023-07-16T06:54:01;100001.50;;;21.73
74321;BMP280;62738;45.772;4.804;2023-07-16T06:56:27;99996.25;;;21.66
74321;BMP280;62738;45.772;4.804;2023-07-16T06:58:54;99993.50;;;21.68
74321;BMP280;62738;45.772;4.804;2023-07-16T07:01:20;99996.75;;;21.78
74321;BMP280;62738;45.772;4.804;2023-07-16T07:03:47;100003.91;;;21.63
74321;BMP280;62738;45.772;4.804;2023-07-16T07:06:14;99993.88;;;21.60
74321;BMP280;62738;45.772;4.804;2023-07-16T07:08:41;99993.09;;;21.58
74321;BMP280;62738;45.772;4.804;2023-07-16T07:11:08;99982.19;;;21.68
74321;BMP280;62738;45.772;4.804;2023-07-16T07:13:35;99987.25;;;21.87
74321;BMP280;62738;45.772;4.804;2023-07-16T07:16:01;99983.38;;;21.96
74321;BMP280;62738;45.772;4.804;2023-07-16T07:18:28;99979.81;;;21.95
74321;BMP280;62738;45.772;4.804;2023-07-16T07:20:55;99988.91;;;22.10
74321;BMP280;62738;45.772;4.804;2023-07-16T07:23:22;99986.66;;;22.24
74321;BMP280;62738;45.772;4.804;2023-07-16T07:25:50;99990.44;;;22.48
74321;BMP280;62738;45.772;4.804;2023-07-16T07:28:19;99985.78;;;22.57
74321;BMP280;62738;45.772;4.804;2023-07-16T07:30:46;99976.72;;;22.78
74321;BMP280;62738;45.772;4.804;2023-07-16T07:33:13;99985.13;;;22.76
74321;BMP280;62738;45.772;4.804;2023-07-16T07:35:40;99979.88;;;22.68
74321;BMP280;62738;45.772;4.804;2023-07-16T07:38:06;99977.63;;;22.65
74321;BMP280;62738;45.772;4.804;2023-07-16T07:40:33;99989.75;;;22.67
74321;BMP280;62738;45.772;4.804;2023-07-16T07:43:00;99991.34;;;22.72
74321;BMP280;62738;45.772;4.804;2023-07-16T07:45:26;99987.66;;;22.87
74321;BMP280;62738;45.772;4.804;2023-07-16T07:47:53;99991.53;;;22.96
74321;BMP280;62738;45.772;4.804;2023-07-16T07:50:20;99990.97;;;23.19
74321;BMP280;62738;45.772;4.804;2023-07-16T07:52:47;99993.94;;;23.04
74321;BMP280;62738;45.772;4.804;2023-07-16T07:55:13;99984.44;;;23.15
74321;BMP280;62738;45.772;4.804;2023-07-16T07:57:40;99992.28;;;23.36
74321;BMP280;62738;45.772;4.804;2023-07-16T08:00:07;99993.28;;;23.44
74321;BMP280;62738;45.772;4.804;2023-07-16T08:02:38;99989.00;;;23.43
74321;BMP280;62738;45.772;4.804;2023-07-16T08:05:06;99986.91;;;23.44
74321;BMP280;62738;45.772;4.804;2023-07-16T08:07:33;99992.84;;;23.52
74321;BMP280;62738;45.772;4.804;2023-07-16T08:10:00;100001.16;;;23.68
74321;BMP280;62738;45.772;4.804;2023-07-16T08:12:26;99990.84;;;23.76
74321;BMP280;62738;45.772;4.804;2023-07-16T08:14:53;99994.31;;;23.96
74321;BMP280;62738;45.772;4.804;2023-07-16T08:17:20;99991.88;;;24.09
74321;BMP280;62738;45.772;4.804;2023-07-16T08:19:49;99997.59;;;24.32
74321;BMP280;62738;45.772;4.804;2023-07-16T08:22:16;99990.31;;;24.49
74321;BMP280;62738;45.772;4.804;2023-07-16T08:24:43;100000.81;;;24.44
74321;BMP280;62738;45.772;4.804;2023-07-16T08:27:10;99987.22;;;24.41
74321;BMP280;62738;45.772;4.804;2023-07-16T08:29:36;99968.44;;;24.53
74321;BMP280;62738;45.772;4.804;2023-07-16T08:32:03;99979.16;;;24.10
74321;BMP280;62738;45.772;4.804;2023-07-16T08:34:30;99973.38;;;24.06
74321;BMP280;62738;45.772;4.804;2023-07-16T08:36:57;99976.25;;;24.08
74321;BMP280;62738;45.772;4.804;2023-07-16T08:39:24;99967.59;;;24.25
74321;BMP280;62738;45.772;4.804;2023-07-16T08:41:52;99986.78;;;24.03
74321;BMP280;62738;45.772;4.804;2023-07-16T08:44:20;99977.09;;;24.12
74321;BMP280;62738;45.772;4.804;2023-07-16T08:46:47;99977.66;;;24.07
74321;BMP280;62738;45.772;4.804;2023-07-16T08:49:17;99975.13;;;24.38
74321;BMP280;62738;45.772;4.804;2023-07-16T08:51:46;99972.31;;;24.40
74321;BMP280;62738;45.772;4.804;2023-07-16T08:54:14;99978.63;;;24.39
74321;BMP280;62738;45.772;4.804;2023-07-16T08:56:47;99974.13;;;24.53
74321;BMP280;62738;45.772;4.804;2023-07-16T08:59:17;99964.63;;;24.67
74321;BMP280;62738;45.772;4.804;2023-07-16T09:01:46;99968.94;;;24.70
74321;BMP280;62738;45.772;4.804;2023-07-16T09:04:17;99967.03;;;24.52
74321;BMP280;62738;45.772;4.804;2023-07-16T09:06:43;99959.63;;;24.67
74321;BMP280;62738;45.772;4.804;2023-07-16T09:09:20;99961.44;;;24.56
74321;BMP280;62738;45.772;4.804;2023-07-16T09:11:48;99963.03;;;24.62
74321;BMP280;62738;45.772;4.804;2023-07-16T09:14:18;99975.09;;;24.62
74321;BMP280;62738;45.772;4.804;2023-07-16T09:16:50;99974.66;;;24.72
74321;BMP280;62738;45.772;4.804;2023-07-16T09:19:17;99978.63;;;24.86
74321;BMP280;62738;45.772;4.804;2023-07-16T09:21:49;99968.38;;;24.75
74321;BMP280;62738;45.772;4.804;2023-07-16T09:24:17;99972.13;;;25.07
74321;BMP280;62738;45.772;4.804;2023-07-16T09:26:51;99967.91;;;25.36
74321;BMP280;62738;45.772;4.804;2023-07-16T09:29:18;99958.00;;;25.37
74321;BMP280;62738;45.772;4.804;2023-07-16T09:32:03;99958.84;;;25.42
74321;BMP280;62738;45.772;4.804;2023-07-16T09:34:30;99968.53;;;25.58
74321;BMP280;62738;45.772;4.804;2023-07-16T09:36:57;99962.38;;;25.42
74321;BMP280;62738;45.772;4.804;2023-07-16T09:39:25;99963.81;;;25.41
74321;BMP280;62738;45.772;4.804;2023-07-16T09:41:53;99957.59;;;25.49
74321;BMP280;62738;45.772;4.804;2023-07-16T09:44:20;99958.19;;;25.73
74321;BMP280;62738;45.772;4.804;2023-07-16T09:46:47;99962.06;;;25.86
74321;BMP280;62738;45.772;4.804;2023-07-16T09:49:15;99953.72;;;25.94
74321;BMP280;62738;45.772;4.804;2023-07-16T09:51:43;99947.63;;;26.07
74321;BMP280;62738;45.772;4.804;2023-07-16T09:54:12;99959.84;;;25.82
74321;BMP280;62738;45.772;4.804;2023-07-16T09:56:43;99951.88;;;25.77
74321;BMP280;62738;45.772;4.804;2023-07-16T09:59:19;99949.66;;;26.03
74321;BMP280;62738;45.772;4.804;2023-07-16T10:01:47;99947.91;;;25.88
74321;BMP280;62738;45.772;4.804;2023-07-16T10:04:16;99947.50;;;25.72
74321;BMP280;62738;45.772;4.804;2023-07-16T10:06:55;99939.88;;;25.50
74321;BMP280;62738;45.772;4.804;2023-07-16T10:09:42;99946.22;;;25.49
74321;BMP280;62738;45.772;4.804;2023-07-16T10:12:18;99932.84;;;24.98
74321;BMP280;62738;45.772;4.804;2023-07-16T10:14:50;99951.09;;;25.17
74321;BMP280;62738;45.772;4.804;2023-07-16T10:17:21;99945.44;;;24.67
74321;BMP280;62738;45.772;4.804;2023-07-16T10:19:51;99928.00;;;24.53
74321;BMP280;62738;45.772;4.804;2023-07-16T10:22:18;99935.91;;;24.56
74321;BMP280;62738;45.772;4.804;2023-07-16T10:24:51;99935.00;;;24.50
74321;BMP280;62738;45.772;4.804;2023-07-16T10:27:32;99935.41;;;24.38
74321;BMP280;62738;45.772;4.804;2023-07-16T10:30:04;99922.38;;;24.79
74321;BMP280;62738;45.772;4.804;2023-07-16T10:32:32;99928.59;;;25.25
74321;BMP280;62738;45.772;4.804;2023-07-16T10:34:59;99924.28;;;25.24
74321;BMP280;62738;45.772;4.804;2023-07-16T10:37:26;99930.25;;;25.36
74321;BMP280;62738;45.772;4.804;2023-07-16T10:39:54;99928.25;;;25.12
74321;BMP280;62738;45.772;4.804;2023-07-16T10:42:23;99927.50;;;25.38
74321;BMP280;62738;45.772;4.804;2023-07-16T10:44:51;99915.38;;;25.65
74321;BMP280;62738;45.772;4.804;2023-07-16T10:47:31;99915.28;;;25.93
74321;BMP280;62738;45.772;4.804;2023-07-16T10:49:58;99917.50;;;26.28
74321;BMP280;62738;45.772;4.804;2023-07-16T10:52:26;99911.25;;;26.69
74321;BMP280;62738;45.772;4.804;2023-07-16T10:54:53;99912.03;;;26.74
74321;BMP280;62738;45.772;4.804;2023-07-16T10:57:25;99915.69;;;26.78
74321;BMP280;62738;45.772;4.804;2023-07-16T10:59:53;99915.28;;;26.58
74321;BMP280;62738;45.772;4.804;2023-07-16T11:02:21;99915.34;;;26.27
74321;BMP280;62738;45.772;4.804;2023-07-16T11:04:48;99917.81;;;26.08
74321;BMP280;62738;45.772;4.804;2023-07-16T11:07:15;99918.78;;;25.30
74321;BMP280;62738;45.772;4.804;2023-07-16T11:09:53;99906.84;;;25.07
74321;BMP280;62738;45.772;4.804;2023-07-16T11:12:24;99905.28;;;25.58
74321;BMP280;62738;45.772;4.804;2023-07-16T11:14:54;99906.13;;;26.28
74321;BMP280;62738;45.772;4.804;2023-07-16T11:17:23;99901.84;;;26.27
74321;BMP280;62738;45.772;4.804;2023-07-16T11:19:52;99901.97;;;26.33
74321;BMP280;62738;45.772;4.804;2023-07-16T11:22:23;99900.41;;;25.94
74321;BMP280;62738;45.772;4.804;2023-07-16T11:24:51;99896.56;;;26.11
74321;BMP280;62738;45.772;4.804;2023-07-16T11:27:26;99898.50;;;26.37
74321;BMP280;62738;45.772;4.804;2023-07-16T11:29:57;99884.19;;;26.33
74321;BMP280;62738;45.772;4.804;2023-07-16T11:32:30;99879.13;;;26.65
74321;BMP280;62738;45.772;4.804;2023-07-16T11:34:58;99873.31;;;26.59
74321;BMP280;62738;45.772;4.804;2023-07-16T11:37:25;99870.63;;;26.67
74321;BMP280;62738;45.772;4.804;2023-07-16T11:39:57;99873.06;;;26.85
74321;BMP280;62738;45.772;4.804;2023-07-16T11:42:28;99868.78;;;26.82
74321;BMP280;62738;45.772;4.804;2023-07-16T11:44:55;99868.22;;;26.53
74321;BMP280;62738;45.772;4.804;2023-07-16T11:47:22;99873.31;;;26.59
74321;BMP280;62738;45.772;4.804;2023-07-16T11:49:49;99860.84;;;26.76
74321;BMP280;62738;45.772;4.804;2023-07-16T11:52:34;99860.00;;;27.09
74321;BMP280;62738;45.772;4.804;2023-07-16T11:55:01;99853.97;;;26.91
74321;BMP280;62738;45.772;4.804;2023-07-16T11:57:28;99852.63;;;26.96
74321;BMP280;62738;45.772;4.804;2023-07-16T11:59:54;99847.31;;;27.18
74321;BMP280;62738;45.772;4.804;2023-07-16T12:02:21;99847.06;;;27.02
74321;BMP280;62738;45.772;4.804;2023-07-16T12:04:48;99841.59;;;27.18
74321;BMP280;62738;45.772;4.804;2023-07-16T12:07:29;99832.06;;;27.46
74321;BMP280;62738;45.772;4.804;2023-07-16T12:09:58;99831.84;;;27.31
74321;BMP280;62738;45.772;4.804;2023-07-16T12:12:24;99827.25;;;27.12
74321;BMP280;62738;45.772;4.804;2023-07-16T12:14:51;99835.47;;;27.34
74321;BMP280;62738;45.772;4.804;2023-07-16T12:17:18;99828.44;;;27.41
74321;BMP280;62738;45.772;4.804;2023-07-16T12:19:44;99826.50;;;27.56
74321;BMP280;62738;45.772;4.804;2023-07-16T12:22:11;99826.88;;;27.82
74321;BMP280;62738;45.772;4.804;2023-07-16T12:24:38;99832.34;;;27.64
74321;BMP280;62738;45.772;4.804;2023-07-16T12:27:05;99841.44;;;27.52
74321;BMP280;62738;45.772;4.804;2023-07-16T12:29:32;99833.38;;;27.88
74321;BMP280;62738;45.772;4.804;2023-07-16T12:31:59;99827.31;;;28.20
74321;BMP280;62738;45.772;4.804;2023-07-16T12:34:26;99827.81;;;27.99
74321;BMP280;62738;45.772;4.804;2023-07-16T12:36:53;99835.34;;;27.78
74321;BMP280;62738;45.772;4.804;2023-07-16T12:39:22;99831.19;;;27.87
74321;BMP280;62738;45.772;4.804;2023-07-16T12:41:49;99820.59;;;27.93
74321;BMP280;62738;45.772;4.804;2023-07-16T12:44:16;99821.06;;;27.74
74321;BMP280;62738;45.772;4.804;2023-07-16T12:46:43;99827.03;;;27.44
74321;BMP280;62738;45.772;4.804;2023-07-16T12:49:09;99827.69;;;27.38
74321;BMP280;62738;45.772;4.804;2023-07-16T12:51:36;99828.13;;;27.69
74321;BMP280;62738;45.772;4.804;2023-07-16T12:54:03;99823.38;;;27.87
74321;BMP280;62738;45.772;4.804;2023-07-16T12:56:29;99818.56;;;28.02
74321;BMP280;62738;45.772;4.804;2023-07-16T12:58:57;99821.75;;;28.32
74321;BMP280;62738;45.772;4.804;2023-07-16T13:01:24;99817.69;;;28.53
74321;BMP280;62738;45.772;4.804;2023-07-16T13:03:51;99817.41;;;28.25
74321;BMP280;62738;45.772;4.804;2023-07-16T13:06:17;99807.75;;;28.59
74321;BMP280;62738;45.772;4.804;2023-07-16T13:08:45;99814.97;;;28.72
74321;BMP280;62738;45.772;4.804;2023-07-16T13:11:11;99801.44;;;28.74
74321;BMP280;62738;45.772;4.804;2023-07-16T13:13:38;99802.16;;;28.75
74321;BMP280;62738;45.772;4.804;2023-07-16T13:16:05;99799.19;;;28.59
74321;BMP280;62738;45.772;4.804;2023-07-16T13:18:31;99802.84;;;28.71
74321;BMP280;62738;45.772;4.804;2023-07-16T13:20:58;99803.78;;;28.94
74321;BMP280;62738;45.772;4.804;2023-07-16T13:23:25;99804.59;;;29.12
74321;BMP280;62738;45.772;4.804;2023-07-16T13:25:51;99799.03;;;29.33
74321;BMP280;62738;45.772;4.804;2023-07-16T13:28:19;99796.22;;;29.41
74321;BMP280;62738;45.772;4.804;2023-07-16T13:30:45;99805.91;;;28.91
74321;BMP280;62738;45.772;4.804;2023-07-16T13:33:12;99804.97;;;28.69
74321;BMP280;62738;45.772;4.804;2023-07-16T13:35:39;99802.25;;;28.83
74321;BMP280;62738;45.772;4.804;2023-07-16T13:38:05;99796.59;;;28.95
74321;BMP280;62738;45.772;4.804;2023-07-16T13:40:32;99789.72;;;29.34
74321;BMP280;62738;45.772;4.804;2023-07-16T13:42:59;99780.44;;;29.32
74321;BMP280;62738;45.772;4.804;2023-07-16T13:45:25;99786.84;;;29.24
74321;BMP280;62738;45.772;4.804;2023-07-16T13:47:52;99778.19;;;29.12
74321;BMP280;62738;45.772;4.804;2023-07-16T13:50:20;99782.59;;;29.35
74321;BMP280;62738;45.772;4.804;2023-07-16T13:52:47;99785.38;;;29.27
74321;BMP280;62738;45.772;4.804;2023-07-16T13:55:13;99765.94;;;29.01
74321;BMP280;62738;45.772;4.804;2023-07-16T13:57:40;99767.44;;;29.10
74321;BMP280;62738;45.772;4.804;2023-07-16T14:00:08;99767.59;;;29.37
74321;BMP280;62738;45.772;4.804;2023-07-16T14:02:36;99769.94;;;29.78
74321;BMP280;62738;45.772;4.804;2023-07-16T14:05:03;99759.97;;;29.96
74321;BMP280;62738;45.772;4.804;2023-07-16T14:07:31;99764.28;;;30.05
74321;BMP280;62738;45.772;4.804;2023-07-16T14:09:57;99757.78;;;29.82
74321;BMP280;62738;45.772;4.804;2023-07-16T14:12:24;99768.41;;;29.55
74321;BMP280;62738;45.772;4.804;2023-07-16T14:14:51;99772.47;;;29.12
74321;BMP280;62738;45.772;4.804;2023-07-16T14:17:19;99765.66;;;28.65
74321;BMP280;62738;45.772;4.804;2023-07-16T14:19:46;99757.25;;;28.79